Aviation Digital Data Service (ADDS)

Output produced by TAFs form (0545 UTC 23 July 2014)
found at http://www.aviationweather.gov/adds/tafs/
 
KDEN 230453Z 17010KT 10SM FEW120 FEW220 27/11 A3032 RMK AO2 SLP175 T02670106
KDEN 230532Z 2306/2412 17011KT P6SM FEW120 SCT200 
     FM231300 20009KT P6SM FEW120 
     FM232000 16012G20KT P6SM SCT100 BKN200 
     FM240000 20010G18KT P6SM VCTS SCT090CB BKN180 
     FM240400 19011KT P6SM FEW120 BKN200